Time;durP1;ratioP1;P1;durP2;ratioP2;P2;SDS_P1;SDS_P2;PMS_P1;PMS_P2;Temp;Humidity;BMP_temperature;BMP_pressure;BME280_temperature;BME280_humidity;BME280_pressure;Samples;Min_cycle;Max_cycle;Signal;HPM_P1;HPM_P2
2022/05/11 00:01:52;;;;;;;;;;;;;;;7.29;41.31;98667.13;5033078;28;20398;-61
2022/05/11 00:04:17;;;;;;;;;;;;;;;7.28;41.19;98661.03;5033804;28;20401;-60
2022/05/11 00:06:43;;;;;;;;;;;;;;;7.27;41.50;98659.44;5034723;28;19929;-61
2022/05/11 00:09:09;;;;;;;;;;;;;;;7.28;41.86;98654.97;5035182;28;20019;-60
2022/05/11 00:11:36;;;;;;;;;;;;;;;7.27;41.68;98661.28;5033416;28;19972;-59
2022/05/11 00:14:02;;;;;;;;;;;;;;;7.27;41.58;98656.81;5035181;28;20396;-61
2022/05/11 00:16:27;;;;;;;;;;;;;;;7.27;41.41;98656.81;5032848;28;20020;-61
2022/05/11 00:18:53;;;;;;;;;;;;;;;7.26;41.72;98649.13;5034649;28;20024;-60
2022/05/11 00:21:19;;;;;;;;;;;;;;;7.24;41.56;98654.66;5033751;28;20386;-60
2022/05/11 00:23:45;;;;;;;;;;;;;;;7.25;41.03;98647.53;5034833;28;19925;-60
2022/05/11 00:26:10;;;;;;;;;;;;;;;7.23;41.69;98646.97;5033135;28;19928;-60
2022/05/11 00:28:36;;;;;;;;;;;;;;;7.23;41.62;98637.22;5033639;28;20332;-60
2022/05/11 00:31:02;;;;;;;;;;;;;;;7.21;41.90;98644.56;5034535;28;19929;-60
2022/05/11 00:33:27;;;;;;;;;;;;;;;7.21;41.72;98646.41;5034650;28;19921;-60
2022/05/11 00:35:53;;;;;;;;;;;;;;;7.19;41.62;98641.34;5033936;28;19941;-59
2022/05/11 00:38:19;;;;;;;;;;;;;;;7.18;42.05;98644.25;5034571;28;19960;-59
2022/05/11 00:40:47;;;;;;;;;;;;;;;7.19;41.74;98651.91;5034104;28;19925;-61
2022/05/11 00:43:12;;;;;;;;;;;;;;;7.17;41.95;98643.41;5000052;28;20023;-59
2022/05/11 00:45:39;;;;;;;;;;;;;;;7.15;42.29;98642.06;5033832;28;20375;-60
2022/05/11 00:49:33;;;;;;;;;;;;;;;7.11;42.11;98643.56;5032876;28;19925;-60
2022/05/11 00:50:50;;;;;;;;;;;;;;;7.12;42.26;98637.25;5034070;28;19929;-60
2022/05/11 00:53:17;;;;;;;;;;;;;;;7.11;42.13;98640.91;5032350;28;20408;-61
2022/05/11 00:55:56;;;;;;;;;;;;;;;7.09;42.45;98635.06;5032510;28;19933;-59
2022/05/11 00:58:27;;;;;;;;;;;;;;;7.09;42.34;98637.72;5034302;28;20423;-61
2022/05/11 01:00:53;;;;;;;;;;;;;;;7.12;42.12;98637.25;5032338;28;19933;-60
2022/05/11 01:03:23;;;;;;;;;;;;;;;7.12;41.90;98638.06;5034316;28;20767;-60
2022/05/11 01:05:49;;;;;;;;;;;;;;;7.11;42.76;98640.91;5032544;28;19929;-59
2022/05/11 01:08:15;;;;;;;;;;;;;;;7.08;42.14;98638.75;5034019;28;19932;-59
2022/05/11 01:10:40;;;;;;;;;;;;;;;7.09;42.27;98640.34;5032567;28;20032;-60
2022/05/11 01:13:07;;;;;;;;;;;;;;;7.08;42.12;98630.84;5032581;28;19972;-60
2022/05/11 01:15:33;;;;;;;;;;;;;;;7.06;42.01;98644.28;5031942;28;19929;-59
2022/05/11 01:17:59;;;;;;;;;;;;;;;7.07;41.73;98635.31;5016070;28;20346;-60
2022/05/11 01:20:25;;;;;;;;;;;;;;;7.11;42.28;98635.66;5032672;28;19964;-62
2022/05/11 01:22:57;;;;;;;;;;;;;;;7.09;42.02;98630.63;5033660;28;19925;-60
2022/05/11 01:25:22;;;;;;;;;;;;;;;7.09;42.65;98635.91;5033121;28;20107;-60
2022/05/11 01:27:48;;;;;;;;;;;;;;;7.11;41.95;98644.34;5015717;28;20027;-60
2022/05/11 01:30:15;;;;;;;;;;;;;;;7.08;42.12;98620.31;5033629;28;19932;-61
2022/05/11 01:32:42;;;;;;;;;;;;;;;7.14;41.43;98637.81;5033132;28;19925;-60
2022/05/11 01:35:14;;;;;;;;;;;;;;;7.18;41.87;98625.78;5032719;28;19987;-60
2022/05/11 01:37:41;;;;;;;;;;;;;;;7.15;42.27;98627.06;5033172;28;20488;-60
2022/05/11 01:40:08;;;;;;;;;;;;;;;7.14;41.79;98632.53;5015151;28;19935;-61
2022/05/11 01:42:33;;;;;;;;;;;;;;;7.18;41.87;98625.78;5033076;28;19933;-60
2022/05/11 01:44:59;;;;;;;;;;;;;;;7.20;42.04;98610.53;5032324;28;20385;-60
2022/05/11 01:47:24;;;;;;;;;;;;;;;7.20;42.04;98621.06;5033451;28;19955;-61
2022/05/11 01:49:50;;;;;;;;;;;;;;;7.21;41.26;98622.69;5033237;28;19951;-60
2022/05/11 01:52:15;;;;;;;;;;;;;;;7.23;41.24;98631.16;5031924;28;19925;-60
2022/05/11 01:54:41;;;;;;;;;;;;;;;7.23;41.69;98620.59;5032538;28;19928;-60
2022/05/11 01:57:06;;;;;;;;;;;;;;;7.19;41.54;98614.22;5033071;28;19948;-61
2022/05/11 01:59:32;;;;;;;;;;;;;;;7.26;41.86;98615.69;5031879;28;20330;-61
2022/05/11 02:01:57;;;;;;;;;;;;;;;7.29;41.25;98614.38;5031182;28;19976;-61
2022/05/11 02:09:51;;;;;;;;;;;;;;;7.31;41.73;98612.31;5032596;28;19935;-60
2022/05/11 02:12:16;;;;;;;;;;;;;;;7.31;41.79;98614.16;5032752;28;19925;-60
2022/05/11 02:14:41;;;;;;;;;;;;;;;7.33;41.23;98620.81;5032191;28;19929;-60
2022/05/11 02:17:07;;;;;;;;;;;;;;;7.40;41.08;98616.19;5032631;28;19925;-59
2022/05/11 02:19:33;;;;;;;;;;;;;;;7.41;41.34;98611.72;5032106;28;20027;-61
2022/05/11 02:21:58;;;;;;;;;;;;;;;7.44;41.68;98617.34;5032310;28;19925;-60
2022/05/11 02:24:24;;;;;;;;;;;;;;;7.44;41.70;98617.34;5031017;28;20329;-60
2022/05/11 02:26:49;;;;;;;;;;;;;;;7.42;41.25;98615.97;5032277;28;19925;-60
2022/05/11 02:29:14;;;;;;;;;;;;;;;7.47;41.20;98613.41;5031263;28;20059;-60
2022/05/11 02:31:40;;;;;;;;;;;;;;;7.46;41.59;98620.50;5032169;28;20291;-61
2022/05/11 02:34:06;;;;;;;;;;;;;;;7.50;41.51;98619.03;5032110;28;19932;-61
2022/05/11 02:36:33;;;;;;;;;;;;;;;7.50;41.70;98612.97;5032323;28;20402;-60
2022/05/11 02:38:58;;;;;;;;;;;;;;;7.57;40.97;98618.09;5030529;28;19931;-60
2022/05/11 02:41:24;;;;;;;;;;;;;;;7.51;41.69;98612.72;5031929;28;19933;-60
2022/05/11 02:43:49;;;;;;;;;;;;;;;7.49;41.02;98619.25;5010815;28;19976;-60
2022/05/11 02:46:15;;;;;;;;;;;;;;;7.53;41.18;98609.84;5012284;28;19936;-60
2022/05/11 02:48:41;;;;;;;;;;;;;;;7.58;41.64;98606.47;5012382;28;19921;-61
2022/05/11 02:51:06;;;;;;;;;;;;;;;7.58;41.56;98627.59;5011489;28;19936;-61
2022/05/11 02:53:32;;;;;;;;;;;;;;;7.60;41.19;98614.97;5016186;28;19975;-60
2022/05/11 02:55:58;;;;;;;;;;;;;;;7.61;41.10;98604.16;5031761;28;19929;-62
2022/05/11 02:58:25;;;;;;;;;;;;;;;7.60;40.90;98612.34;5032075;28;20394;-60
2022/05/11 03:00:51;;;;;;;;;;;;;;;7.60;41.61;98607.84;5030087;28;19936;-61
2022/05/11 03:03:17;;;;;;;;;;;;;;;7.69;41.24;98616.19;5031644;28;19925;-60
2022/05/11 03:05:42;;;;;;;;;;;;;;;7.70;41.62;98615.13;5031842;28;19960;-62
2022/05/11 03:08:08;;;;;;;;;;;;;;;7.71;41.66;98627.31;5031946;28;19925;-59
2022/05/11 03:10:33;;;;;;;;;;;;;;;7.74;40.62;98630.25;5032155;28;19956;-60
2022/05/11 03:12:59;;;;;;;;;;;;;;;7.75;40.52;98625.78;5029935;28;20016;-61
2022/05/11 03:15:25;;;;;;;;;;;;;;;7.72;41.02;98628.91;5030809;28;19929;-61
2022/05/11 03:17:50;;;;;;;;;;;;;;;7.74;40.75;98614.44;5032132;28;20409;-61
2022/05/11 03:20:17;;;;;;;;;;;;;;;7.77;40.86;98629.00;5031945;28;19969;-61
2022/05/11 03:22:43;;;;;;;;;;;;;;;7.79;41.24;98610.28;5031266;28;19967;-61
2022/05/11 03:25:09;;;;;;;;;;;;;;;7.84;40.49;98610.38;5031873;28;19929;-62
2022/05/11 03:27:37;;;;;;;;;;;;;;;7.85;40.56;98609.31;5031577;28;19925;-60
2022/05/11 03:30:03;;;;;;;;;;;;;;;7.90;40.45;98606.78;5030141;28;20313;-61
2022/05/11 03:35:13;;;;;;;;;;;;;;;7.98;40.18;98609.03;5031501;28;19960;-61
2022/05/11 03:37:38;;;;;;;;;;;;;;;8.07;40.15;98614.72;5031743;28;19965;-60
2022/05/11 03:40:13;;;;;;;;;;;;;;;8.13;39.63;98626.94;5031570;28;19929;-60
2022/05/11 03:42:39;;;;;;;;;;;;;;;8.20;39.69;98612.53;5029913;28;19935;-59
2022/05/11 03:45:09;;;;;;;;;;;;;;;8.17;39.94;98623.56;5030368;28;19936;-61
2022/05/11 03:47:35;;;;;;;;;;;;;;;8.27;39.06;98622.16;5030987;28;19978;-60
2022/05/11 03:50:00;;;;;;;;;;;;;;;8.35;39.21;98611.16;5031602;28;19929;-60
2022/05/11 03:52:27;;;;;;;;;;;;;;;8.36;39.33;98608.28;5031141;28;19927;-60
2022/05/11 03:54:53;;;;;;;;;;;;;;;8.36;38.46;98610.94;5031630;28;19929;-59
2022/05/11 03:57:18;;;;;;;;;;;;;;;8.51;39.22;98609.59;5031245;28;19929;-60
2022/05/11 04:00:06;;;;;;;;;;;;;;;8.63;38.52;98612.94;5031258;28;20035;-61
2022/05/11 04:02:38;;;;;;;;;;;;;;;8.77;38.59;98606.25;5032311;28;19975;-61
2022/05/11 04:05:04;;;;;;;;;;;;;;;8.87;37.82;98611.66;5033670;28;19962;-62
2022/05/11 04:07:30;;;;;;;;;;;;;;;8.96;37.87;98614.69;5035028;28;19925;-60
2022/05/11 04:09:55;;;;;;;;;;;;;;;9.02;37.92;98602.31;5034640;28;19968;-61
2022/05/11 04:12:23;;;;;;;;;;;;;;;9.09;37.25;98606.41;5033985;28;19929;-62
2022/05/11 04:14:49;;;;;;;;;;;;;;;9.15;37.31;98606.44;5034632;28;19929;-61
2022/05/11 04:17:14;;;;;;;;;;;;;;;9.21;36.98;98598.31;5034645;28;19925;-61
2022/05/11 04:19:40;;;;;;;;;;;;;;;9.28;36.54;98604.22;5017233;28;20015;-62
2022/05/11 04:22:05;;;;;;;;;;;;;;;9.43;36.75;98605.44;5034317;28;20378;-61
2022/05/11 04:24:31;;;;;;;;;;;;;;;9.58;37.13;98610.88;5034463;28;19933;-61
2022/05/11 04:26:56;;;;;;;;;;;;;;;9.57;36.78;98604.00;5033099;28;19932;-63
2022/05/11 04:29:22;;;;;;;;;;;;;;;9.55;36.83;98604.22;5033330;28;19932;-62
2022/05/11 04:31:54;;;;;;;;;;;;;;;9.53;36.27;98616.13;5033891;28;20202;-61
2022/05/11 04:34:20;;;;;;;;;;;;;;;9.57;36.63;98611.94;5033375;28;20007;-62
2022/05/11 04:36:45;;;;;;;;;;;;;;;9.56;36.58;98599.75;5034566;28;20524;-61
2022/05/11 04:39:11;;;;;;;;;;;;;;;9.66;36.09;98602.50;5034801;28;19925;-61
2022/05/11 04:41:36;;;;;;;;;;;;;;;9.70;36.46;98594.84;5016223;28;20033;-59
2022/05/11 04:44:02;;;;;;;;;;;;;;;9.75;36.49;98582.47;5034425;28;19979;-61
2022/05/11 04:46:27;;;;;;;;;;;;;;;9.80;36.50;98584.34;5033857;28;20310;-62
2022/05/11 04:49:16;;;;;;;;;;;;;;;9.89;35.78;98590.00;5034545;28;19925;-61
2022/05/11 04:51:39;;;;;;;;;;;;;;;9.98;35.24;98591.91;5033106;28;20436;-59
2022/05/11 04:54:04;;;;;;;;;;;;;;;10.03;35.56;98593.81;5034449;28;19933;-61
2022/05/11 04:56:32;;;;;;;;;;;;;;;9.99;36.00;98582.91;5033619;28;19929;-60
2022/05/11 04:58:58;;;;;;;;;;;;;;;10.07;34.91;98588.81;5033600;28;20027;-60
2022/05/11 05:01:25;;;;;;;;;;;;;;;10.16;34.99;98588.09;5032345;28;20373;-61
2022/05/11 05:03:50;;;;;;;;;;;;;;;10.26;35.13;98581.25;5032684;28;19972;-61
2022/05/11 05:06:16;;;;;;;;;;;;;;;10.28;34.82;98581.84;5034073;28;19956;-62
2022/05/11 05:08:41;;;;;;;;;;;;;;;10.24;34.69;98584.19;5034015;28;20020;-61
2022/05/11 05:11:07;;;;;;;;;;;;;;;10.33;34.84;98587.97;5033833;28;20318;-62
2022/05/11 05:13:33;;;;;;;;;;;;;;;10.29;33.80;98586.06;5015504;28;19934;-62
2022/05/11 05:15:58;;;;;;;;;;;;;;;10.31;34.88;98584.78;5032355;28;19929;-62
2022/05/11 05:18:24;;;;;;;;;;;;;;;10.27;34.37;98583.69;5028161;28;19929;-62
2022/05/11 05:20:49;;;;;;;;;;;;;;;10.23;34.17;98583.38;5032885;28;19936;-63
2022/05/11 05:23:15;;;;;;;;;;;;;;;10.40;33.99;98570.00;5015086;28;19932;-64
2022/05/11 05:25:41;;;;;;;;;;;;;;;10.43;34.45;98576.63;5015041;28;19936;-61
2022/05/11 05:31:06;;;;;;;;;;;;;;;10.55;34.25;98573.78;5033107;28;20293;-62
2022/05/11 05:33:34;;;;;;;;;;;;;;;10.63;33.78;98560.06;5030277;28;20020;-61
2022/05/11 05:36:01;;;;;;;;;;;;;;;10.78;33.32;98567.28;5030288;28;19964;-60
2022/05/11 05:38:27;;;;;;;;;;;;;;;10.96;32.48;98569.47;5031065;28;19925;-62
2022/05/11 05:41:24;;;;;;;;;;;;;;;11.05;31.55;98564.47;5032901;28;19947;-62
2022/05/11 05:43:50;;;;;;;;;;;;;;;11.27;32.04;98566.94;5029296;28;19925;-61
2022/05/11 05:46:16;;;;;;;;;;;;;;;11.28;31.81;98577.25;5032604;28;19964;-62
2022/05/11 05:48:42;;;;;;;;;;;;;;;11.28;30.05;98584.44;5030159;28;19925;-62
2022/05/11 05:51:08;;;;;;;;;;;;;;;11.35;29.56;98577.00;5031598;28;20441;-63
2022/05/11 05:53:34;;;;;;;;;;;;;;;11.50;29.84;98563.78;5009680;28;20441;-61
2022/05/11 05:56:00;;;;;;;;;;;;;;;11.64;29.48;98574.66;5029917;28;19968;-62
2022/05/11 05:58:26;;;;;;;;;;;;;;;11.77;28.49;98576.03;5028746;28;19925;-62
2022/05/11 06:00:51;;;;;;;;;;;;;;;11.91;28.48;98565.69;5030350;28;20341;-61
2022/05/11 06:03:20;;;;;;;;;;;;;;;11.92;28.72;98559.34;5031116;28;19925;-61
2022/05/11 06:05:46;;;;;;;;;;;;;;;12.05;28.09;98564.09;5030631;28;19968;-61
2022/05/11 06:08:16;;;;;;;;;;;;;;;12.20;26.90;98572.03;5013595;28;19990;-61
2022/05/11 06:10:42;;;;;;;;;;;;;;;12.35;27.75;98557.16;5028792;28;19944;-62
2022/05/11 06:13:08;;;;;;;;;;;;;;;12.64;27.63;98557.34;5028938;28;19925;-62
2022/05/11 06:15:35;;;;;;;;;;;;;;;12.73;26.00;98566.34;4997092;28;20157;-61
2022/05/11 06:18:01;;;;;;;;;;;;;;;12.83;26.59;98553.03;5031528;28;19932;-61
2022/05/11 06:20:33;;;;;;;;;;;;;;;12.85;26.22;98561.53;5028593;28;20406;-65
2022/05/11 06:22:59;;;;;;;;;;;;;;;12.95;26.44;98544.72;5030504;28;20337;-63
2022/05/11 06:25:24;;;;;;;;;;;;;;;13.14;26.02;98542.22;5030393;28;19929;-64
2022/05/11 06:27:50;;;;;;;;;;;;;;;13.38;25.85;98543.19;5030439;28;19932;-63
2022/05/11 06:30:16;;;;;;;;;;;;;;;13.45;25.90;98574.03;4997289;28;19936;-63
2022/05/11 06:32:45;;;;;;;;;;;;;;;13.36;25.33;98548.00;5027654;28;19925;-61
2022/05/11 06:35:11;;;;;;;;;;;;;;;13.48;24.99;98544.22;5029939;28;19936;-62
2022/05/11 06:37:38;;;;;;;;;;;;;;;13.56;25.00;98547.06;5030041;28;19925;-63
2022/05/11 06:40:04;;;;;;;;;;;;;;;13.50;25.21;98553.50;5025942;28;19979;-62
2022/05/11 06:42:30;;;;;;;;;;;;;;;13.60;25.36;98541.97;5007445;28;19953;-63
2022/05/11 06:44:56;;;;;;;;;;;;;;;13.72;25.02;98533.63;5011855;28;19940;-62
2022/05/11 06:47:22;;;;;;;;;;;;;;;13.66;25.73;98537.41;5011470;28;20371;-62
2022/05/11 06:49:47;;;;;;;;;;;;;;;13.60;24.72;98542.78;4994833;28;19929;-62
2022/05/11 06:52:14;;;;;;;;;;;;;;;13.68;24.67;98553.91;5029224;28;19968;-62
2022/05/11 07:00:08;;;;;;;;;;;;;;;13.79;24.90;98528.78;5029335;28;19929;-63
2022/05/11 07:02:37;;;;;;;;;;;;;;;13.85;25.30;98527.66;5012642;28;19925;-61
2022/05/11 07:05:03;;;;;;;;;;;;;;;13.86;25.00;98523.94;5030265;28;20425;-62
2022/05/11 07:07:49;;;;;;;;;;;;;;;14.01;25.47;98523.78;5031007;28;19925;-63
2022/05/11 07:10:16;;;;;;;;;;;;;;;13.88;24.23;98529.75;5010818;28;19929;-60
2022/05/11 07:12:46;;;;;;;;;;;;;;;13.82;24.35;98539.69;5030213;28;20360;-62
2022/05/11 07:15:11;;;;;;;;;;;;;;;13.78;24.96;98525.31;5030068;28;20386;-61
2022/05/11 07:17:43;;;;;;;;;;;;;;;13.67;24.38;98566.41;5013254;28;19925;-61
2022/05/11 07:20:14;;;;;;;;;;;;;;;13.55;24.23;98523.38;5012401;28;20402;-61
2022/05/11 07:22:39;;;;;;;;;;;;;;;13.52;24.71;98523.94;5030547;28;19925;-64
2022/05/11 07:25:05;;;;;;;;;;;;;;;13.52;24.92;98529.25;5028457;28;20275;-62
2022/05/11 07:27:31;;;;;;;;;;;;;;;13.52;24.33;98532.72;5029630;28;20388;-61
2022/05/11 07:29:57;;;;;;;;;;;;;;;13.59;24.65;98519.09;5029981;28;19976;-62
2022/05/11 07:32:23;;;;;;;;;;;;;;;13.74;25.43;98516.31;5030616;28;20020;-61
2022/05/11 07:34:49;;;;;;;;;;;;;;;13.89;25.58;98501.28;5030924;28;19936;-62
2022/05/11 07:37:15;;;;;;;;;;;;;;;14.03;25.45;98507.50;5013593;28;20351;-63
2022/05/11 07:39:40;;;;;;;;;;;;;;;14.11;24.92;98527.44;5033798;28;20023;-63
2022/05/11 07:42:06;;;;;;;;;;;;;;;14.00;25.19;98506.22;5034801;28;19975;-64
2022/05/11 07:44:32;;;;;;;;;;;;;;;14.01;25.64;98493.69;5033835;28;19929;-64
2022/05/11 07:46:57;;;;;;;;;;;;;;;14.19;25.25;98489.50;5034192;28;19975;-62
2022/05/11 07:49:24;;;;;;;;;;;;;;;14.28;25.25;98488.59;5015414;28;19952;-62
2022/05/11 07:51:52;;;;;;;;;;;;;;;14.34;25.60;98494.69;5015173;28;19929;-60
2022/05/11 07:54:19;;;;;;;;;;;;;;;14.40;25.71;98484.75;5015778;28;19917;-62
2022/05/11 08:00:02;;;;;;;;;;;;;;;14.46;24.96;98499.63;5016170;28;19975;-62
2022/05/11 08:02:36;;;;;;;;;;;;;;;14.63;25.30;98481.31;5001854;28;20501;-61
2022/05/11 08:05:11;;;;;;;;;;;;;;;14.79;24.67;98473.91;4999664;28;19929;-62
2022/05/11 08:07:49;;;;;;;;;;;;;;;14.75;24.55;98481.69;5000090;28;19920;-63
2022/05/11 08:10:21;;;;;;;;;;;;;;;14.92;25.29;98477.75;5032686;28;19959;-61
2022/05/11 08:12:56;;;;;;;;;;;;;;;14.90;24.59;98482.56;4999434;28;19929;-62
2022/05/11 08:15:24;;;;;;;;;;;;;;;14.87;24.60;98483.94;4998999;28;19929;-61
2022/05/11 08:17:51;;;;;;;;;;;;;;;14.68;24.08;98512.47;4997856;28;20288;-61
2022/05/11 08:20:23;;;;;;;;;;;;;;;14.53;24.21;98494.78;5014945;28;19933;-62
2022/05/11 08:22:51;;;;;;;;;;;;;;;14.54;24.73;98477.69;5015572;28;19931;-61
2022/05/11 08:25:24;;;;;;;;;;;;;;;14.50;24.64;98473.97;5016536;28;19933;-61
2022/05/11 08:27:55;;;;;;;;;;;;;;;14.60;25.47;98468.53;5016277;28;19958;-62
2022/05/11 08:33:24;;;;;;;;;;;;;;;14.80;25.38;98482.72;5031494;28;19960;-62
2022/05/11 08:35:51;;;;;;;;;;;;;;;14.73;24.51;98483.03;5030877;28;20509;-62
2022/05/11 08:38:28;;;;;;;;;;;;;;;14.68;24.18;98480.47;5031929;28;19925;-61
2022/05/11 08:41:05;;;;;;;;;;;;;;;14.70;24.67;98464.94;5000228;28;19929;-60
2022/05/11 08:43:42;;;;;;;;;;;;;;;14.77;24.90;98470.75;5032645;28;19917;-64
2022/05/11 08:46:15;;;;;;;;;;;;;;;14.88;25.39;98474.88;5030954;28;19929;-62
2022/05/11 08:48:43;;;;;;;;;;;;;;;15.09;25.40;98462.03;4998918;28;20410;-61
2022/05/11 08:51:13;;;;;;;;;;;;;;;15.06;24.90;98451.13;5013395;28;20087;-60
2022/05/11 08:53:40;;;;;;;;;;;;;;;15.02;24.95;98455.44;5031798;28;19925;-60
2022/05/11 08:56:12;;;;;;;;;;;;;;;14.85;24.88;98461.28;5015761;28;19929;-58
2022/05/11 08:58:45;;;;;;;;;;;;;;;14.88;25.26;98480.19;5015099;28;19925;-61
2022/05/11 09:01:14;;;;;;;;;;;;;;;14.64;25.46;98476.75;5015762;28;19936;-59
2022/05/11 09:03:41;;;;;;;;;;;;;;;14.70;25.70;98456.94;5014201;28;19925;-60
2022/05/11 09:06:18;;;;;;;;;;;;;;;14.87;25.45;98451.13;5031737;28;20027;-60
2022/05/11 09:08:44;;;;;;;;;;;;;;;15.15;26.06;98460.88;5015001;28;19937;-61
2022/05/11 09:11:12;;;;;;;;;;;;;;;15.24;25.76;98452.22;5031652;28;20448;-60
2022/05/11 09:13:39;;;;;;;;;;;;;;;15.46;25.38;98444.34;5031019;28;20306;-61
2022/05/11 09:16:06;;;;;;;;;;;;;;;15.49;24.95;98448.31;5033454;28;19937;-59
2022/05/11 09:18:35;;;;;;;;;;;;;;;15.42;24.36;98465.53;5014726;28;20441;-60
2022/05/11 09:21:05;;;;;;;;;;;;;;;15.41;24.18;98447.09;4998097;28;20048;-59
2022/05/11 09:23:36;;;;;;;;;;;;;;;15.46;24.16;98465.72;4998122;28;19925;-59
2022/05/11 09:26:03;;;;;;;;;;;;;;;15.34;24.31;98452.81;5032699;28;20487;-58
2022/05/11 09:28:31;;;;;;;;;;;;;;;15.53;24.12;98434.09;5031962;28;20408;-61
2022/05/11 09:31:01;;;;;;;;;;;;;;;15.72;24.55;98430.59;5014745;28;19929;-60
2022/05/11 09:33:40;;;;;;;;;;;;;;;15.75;24.08;98440.72;5031335;28;19925;-61
2022/05/11 09:36:07;;;;;;;;;;;;;;;15.81;24.44;98431.50;5030211;28;19929;-59
2022/05/11 09:38:36;;;;;;;;;;;;;;;15.77;24.34;98444.69;5032467;28;19929;-60
2022/05/11 09:41:10;;;;;;;;;;;;;;;15.82;24.64;98441.09;5032661;28;19941;-60
2022/05/11 09:43:36;;;;;;;;;;;;;;;15.94;24.33;98432.59;5032637;28;19925;-60
2022/05/11 09:46:37;;;;;;;;;;;;;;;15.91;24.72;98425.97;5032099;28;19975;-59
2022/05/11 09:49:04;;;;;;;;;;;;;;;15.97;25.11;98430.16;5009066;28;19976;-60
2022/05/11 09:51:43;;;;;;;;;;;;;;;15.97;25.72;98427.50;5021652;28;20421;-62
2022/05/11 09:54:28;;;;;;;;;;;;;;;16.04;25.43;98433.22;5029830;28;19925;-59
2022/05/11 09:57:03;;;;;;;;;;;;;;;15.90;26.10;98435.88;5020582;28;19936;-61
2022/05/11 09:59:28;;;;;;;;;;;;;;;16.11;26.16;98436.28;5029664;28;19975;-62
2022/05/11 10:01:58;;;;;;;;;;;;;;;16.13;26.28;98436.78;5012000;28;19933;-61
2022/05/11 10:04:28;;;;;;;;;;;;;;;16.39;26.70;98428.28;5031024;28;19994;-62
2022/05/11 10:06:54;;;;;;;;;;;;;;;16.62;27.09;98429.13;5032769;28;19933;-61
2022/05/11 10:09:24;;;;;;;;;;;;;;;16.66;25.98;98426.66;5032137;28;19994;-61
2022/05/11 10:11:50;;;;;;;;;;;;;;;16.79;26.21;98433.88;5014170;28;19935;-62
2022/05/11 10:22:51;;;;;;;;;;;;;;;16.72;25.71;98423.56;5011709;28;19925;-60
2022/05/11 10:25:24;;;;;;;;;;;;;;;16.80;25.27;98406.81;5019535;28;19956;-61
2022/05/11 10:27:50;;;;;;;;;;;;;;;16.96;25.44;98411.81;5012586;28;19984;-61
2022/05/11 10:30:18;;;;;;;;;;;;;;;16.97;25.95;98416.06;5010677;28;19929;-60
2022/05/11 10:32:43;;;;;;;;;;;;;;;17.01;26.17;98414.38;5012064;28;19943;-61
2022/05/11 10:35:11;;;;;;;;;;;;;;;17.23;25.80;98411.69;5012372;28;20424;-63
2022/05/11 10:37:59;;;;;;;;;;;;;;;17.26;25.28;98402.25;5009991;28;19926;-61
2022/05/11 10:40:32;;;;;;;;;;;;;;;17.32;25.53;98413.66;5011654;28;20414;-60
2022/05/11 10:43:26;;;;;;;;;;;;;;;17.49;25.70;98421.78;5009811;28;20020;-60
2022/05/11 10:45:58;;;;;;;;;;;;;;;17.27;24.38;98419.16;4995586;28;19933;-60
2022/05/11 10:48:29;;;;;;;;;;;;;;;17.12;24.63;98423.78;5024633;28;19971;-61
2022/05/11 10:51:13;;;;;;;;;;;;;;;17.13;24.82;98409.28;5029646;28;19933;-60
2022/05/11 10:53:57;;;;;;;;;;;;;;;17.00;25.25;98421.63;5025217;28;19936;-63
2022/05/11 10:56:25;;;;;;;;;;;;;;;16.95;24.72;98431.66;5020574;28;19929;-64
2022/05/11 10:58:54;;;;;;;;;;;;;;;16.87;25.15;98419.00;5027512;28;19948;-64
2022/05/11 11:01:22;;;;;;;;;;;;;;;16.86;25.23;98410.19;5029404;28;19929;-62
2022/05/11 11:04:06;;;;;;;;;;;;;;;16.82;25.59;98401.16;5028398;28;19925;-63
2022/05/11 11:09:30;;;;;;;;;;;;;;;17.01;25.03;98388.41;5028483;28;20382;-61
2022/05/11 11:11:55;;;;;;;;;;;;;;;16.92;24.99;98417.00;5028965;28;19944;-61
2022/05/11 11:14:24;;;;;;;;;;;;;;;16.86;25.01;98391.44;5024121;28;20410;-60
2022/05/11 11:16:49;;;;;;;;;;;;;;;16.95;25.01;98388.84;5017348;28;19929;-62
2022/05/11 11:19:15;;;;;;;;;;;;;;;16.76;25.12;98395.13;5035026;28;19932;-62
2022/05/11 11:21:41;;;;;;;;;;;;;;;16.80;24.95;98372.03;5018142;28;20162;-64
2022/05/11 11:24:11;;;;;;;;;;;;;;;16.89;25.30;98388.16;5037495;28;20016;-61
2022/05/11 11:26:45;;;;;;;;;;;;;;;16.71;25.04;98383.72;5037461;28;20397;-62
2022/05/11 11:29:30;;;;;;;;;;;;;;;16.80;24.77;98374.69;5033609;28;20440;-61
2022/05/11 11:31:59;;;;;;;;;;;;;;;16.84;25.51;98358.81;5016561;28;20541;-64
2022/05/11 11:34:27;;;;;;;;;;;;;;;16.80;24.75;98373.91;5032948;28;19934;-60
2022/05/11 11:36:53;;;;;;;;;;;;;;;16.83;24.60;98385.91;5016382;28;19944;-65
2022/05/11 11:39:39;;;;;;;;;;;;;;;16.80;24.88;98373.91;5005205;28;19994;-61
2022/05/11 11:42:08;;;;;;;;;;;;;;;16.83;24.55;98365.28;5035816;28;19940;-61
2022/05/11 11:44:41;;;;;;;;;;;;;;;16.81;24.80;98354.06;5036745;28;19928;-61
2022/05/11 11:47:37;;;;;;;;;;;;;;;16.86;24.93;98350.50;5023615;28;20471;-61
2022/05/11 11:50:05;;;;;;;;;;;;;;;16.97;24.80;98336.56;5009767;28;20427;-62
2022/05/11 11:52:35;;;;;;;;;;;;;;;16.97;24.66;98359.84;5019605;28;19971;-60
2022/05/11 11:55:02;;;;;;;;;;;;;;;16.98;24.75;98351.53;5018297;28;20353;-62
2022/05/11 11:57:29;;;;;;;;;;;;;;;17.00;24.87;98341.31;5022527;28;19925;-61
2022/05/11 12:00:02;;;;;;;;;;;;;;;17.00;24.81;98341.31;5022536;28;19933;-60
2022/05/11 12:02:42;;;;;;;;;;;;;;;17.10;25.11;98342.16;5029043;28;19956;-60
2022/05/11 12:05:39;;;;;;;;;;;;;;;17.10;24.68;98344.84;5035862;28;19929;-62
2022/05/11 12:16:59;;;;;;;;;;;;;;;17.08;24.58;98347.81;5034602;28;19933;-62
2022/05/11 12:19:26;;;;;;;;;;;;;;;17.04;24.13;98354.88;5036154;28;20421;-63
2022/05/11 12:22:14;;;;;;;;;;;;;;;17.07;24.04;98324.03;5034919;28;19929;-59
2022/05/11 12:25:19;;;;;;;;;;;;;;;17.03;23.93;98351.41;4986704;28;20429;-61
2022/05/11 12:27:47;;;;;;;;;;;;;;;17.04;24.05;98333.47;5031324;28;20143;-62
2022/05/11 12:30:18;;;;;;;;;;;;;;;17.08;24.43;98341.66;5014479;28;19936;-60
2022/05/11 12:32:57;;;;;;;;;;;;;;;17.09;23.92;98322.63;5030750;28;19990;-63
2022/05/11 12:35:27;;;;;;;;;;;;;;;17.01;23.93;98337.53;4982198;28;20385;-61
2022/05/11 12:38:06;;;;;;;;;;;;;;;17.07;23.87;98335.53;5028221;28;20378;-63
2022/05/11 12:40:40;;;;;;;;;;;;;;;17.09;23.26;98343.25;4978877;28;19930;-59
2022/05/11 12:43:21;;;;;;;;;;;;;;;17.03;23.26;98316.63;4995315;28;20473;-60
2022/05/11 12:46:21;;;;;;;;;;;;;;;17.01;23.34;98332.19;4992086;28;19925;-61
2022/05/11 12:49:12;;;;;;;;;;;;;;;17.03;23.41;98335.34;5026142;28;20011;-60
2022/05/11 12:51:44;;;;;;;;;;;;;;;17.04;23.33;98312.03;5028389;28;19929;-61
2022/05/11 12:54:17;;;;;;;;;;;;;;;16.88;23.64;98333.03;5031534;28;20027;-61
2022/05/11 12:56:44;;;;;;;;;;;;;;;16.88;23.22;98313.50;5031107;28;19929;-60
2022/05/11 12:59:17;;;;;;;;;;;;;;;16.87;23.62;98312.72;5014409;28;20297;-60
2022/05/11 13:01:43;;;;;;;;;;;;;;;16.92;23.62;98307.25;5031059;28;20322;-62
2022/05/11 13:04:20;;;;;;;;;;;;;;;16.92;23.32;98304.56;5030447;28;19971;-62
2022/05/11 13:06:47;;;;;;;;;;;;;;;16.90;23.87;98300.63;5022269;28;19987;-59
2022/05/11 13:09:21;;;;;;;;;;;;;;;16.92;23.53;98288.50;5021916;28;19925;-61
2022/05/11 13:11:46;;;;;;;;;;;;;;;16.99;23.91;98296.88;5025497;28;19930;-62
2022/05/11 13:14:17;;;;;;;;;;;;;;;17.07;23.42;98292.69;5012704;28;19925;-61
2022/05/11 13:16:51;;;;;;;;;;;;;;;17.13;23.91;98296.81;5010126;28;19937;-62
2022/05/11 13:19:25;;;;;;;;;;;;;;;17.21;23.92;98296.06;5010915;28;20016;-63
2022/05/11 13:21:52;;;;;;;;;;;;;;;17.34;24.18;98296.28;4979127;28;20295;-61
2022/05/11 13:24:37;;;;;;;;;;;;;;;17.35;24.12;98295.97;4994507;28;19925;-64
2022/05/11 13:27:23;;;;;;;;;;;;;;;17.44;23.95;98294.13;5010044;28;19956;-62
2022/05/11 13:29:48;;;;;;;;;;;;;;;17.53;23.37;98294.19;5025746;28;20386;-60
2022/05/11 13:32:23;;;;;;;;;;;;;;;17.65;22.79;98301.63;5029898;28;19936;-60
2022/05/11 13:34:49;;;;;;;;;;;;;;;17.60;22.64;98302.53;5029480;28;19929;-60
2022/05/11 13:37:25;;;;;;;;;;;;;;;17.76;22.72;98297.53;5027348;28;19994;-63
2022/05/11 13:39:51;;;;;;;;;;;;;;;17.84;22.75;98294.13;5009753;28;20301;-61
2022/05/11 13:42:17;;;;;;;;;;;;;;;17.84;22.69;98290.66;4993265;28;19917;-61
2022/05/11 13:44:48;;;;;;;;;;;;;;;17.85;22.62;98279.66;5019163;28;20363;-59